createdAt,value
2023-02-03T00:00:17.276Z,3.64
2023-02-03T00:02:45.719Z,3.60
2023-02-03T00:05:14.376Z,3.61
2023-02-03T00:07:44.497Z,3.55
2023-02-03T00:10:14.474Z,3.58
2023-02-03T00:12:43.228Z,3.60
2023-02-03T00:15:11.911Z,3.62
2023-02-03T00:17:40.026Z,3.68
2023-02-03T00:20:09.347Z,3.76
2023-02-03T00:22:37.765Z,3.69
2023-02-03T00:25:06.878Z,3.76
2023-02-03T00:27:36.764Z,3.77
2023-02-03T00:30:06.203Z,3.82
2023-02-03T00:32:34.332Z,3.72
2023-02-03T00:35:02.641Z,3.70
2023-02-03T00:37:30.701Z,3.65
2023-02-03T00:39:59.043Z,3.68
2023-02-03T00:42:30.072Z,3.72
2023-02-03T00:44:59.758Z,3.72
2023-02-03T00:47:28.040Z,3.63
2023-02-03T00:49:56.491Z,3.70
2023-02-03T00:52:24.657Z,3.73
2023-02-03T00:54:52.902Z,3.80
2023-02-03T00:57:21.431Z,3.72
2023-02-03T00:59:49.988Z,3.70
2023-02-03T01:02:19.942Z,3.70
2023-02-03T01:04:48.203Z,3.78
2023-02-03T01:07:16.674Z,3.76
2023-02-03T01:09:44.806Z,3.85
2023-02-03T01:12:13.053Z,3.76
2023-02-03T01:14:41.153Z,3.77
2023-02-03T01:17:09.968Z,3.84
2023-02-03T01:19:39.585Z,3.85
2023-02-03T01:22:07.986Z,3.78
2023-02-03T01:24:36.209Z,3.76
2023-02-03T01:27:04.380Z,3.71
2023-02-03T01:29:34.189Z,3.62
2023-02-03T01:32:03.538Z,3.71
2023-02-03T01:34:31.977Z,3.70
2023-02-03T01:37:01.758Z,3.72
2023-02-03T01:39:30.118Z,3.73
2023-02-03T01:41:58.326Z,3.64
2023-02-03T01:44:44.769Z,3.69
2023-02-03T01:47:18.526Z,3.75
2023-02-03T01:49:51.316Z,3.75
2023-02-03T01:52:21.038Z,3.67
2023-02-03T01:54:51.507Z,3.67
2023-02-03T01:57:24.437Z,3.66
2023-02-03T01:59:55.241Z,3.67
2023-02-03T02:02:24.623Z,3.70
2023-02-03T02:04:58.194Z,3.58
2023-02-03T02:07:28.120Z,3.63
2023-02-03T02:09:56.777Z,3.56
2023-02-03T02:12:25.306Z,3.55
2023-02-03T02:14:53.406Z,3.52
2023-02-03T02:17:38.051Z,3.58
2023-02-03T02:20:46.761Z,3.55
2023-02-03T02:23:52.744Z,3.63
2023-02-03T02:26:49.603Z,3.59
2023-02-03T02:30:02.085Z,3.62
2023-02-03T02:32:43.364Z,3.72
2023-02-03T02:35:21.853Z,3.75
2023-02-03T02:37:54.495Z,3.74
2023-02-03T02:40:31.966Z,3.72
2023-02-03T02:43:09.087Z,3.64
2023-02-03T02:45:46.470Z,3.71
2023-02-03T02:48:23.746Z,3.64
2023-02-03T02:50:55.451Z,3.74
2023-02-03T02:53:27.462Z,3.72
2023-02-03T02:55:58.045Z,3.79
2023-02-03T02:58:28.183Z,3.60
2023-02-03T03:00:57.556Z,3.77
2023-02-03T03:03:27.416Z,3.80
2023-02-03T03:05:58.957Z,3.89
2023-02-03T03:08:32.904Z,3.86
2023-02-03T03:11:03.151Z,3.73
2023-02-03T03:13:38.457Z,3.77
2023-02-03T03:16:09.773Z,3.74
2023-02-03T03:18:44.832Z,3.79
2023-02-03T03:21:17.352Z,3.78
2023-02-03T03:23:49.610Z,3.88
2023-02-03T03:26:23.710Z,3.80
2023-02-03T03:28:56.470Z,3.74
2023-02-03T03:31:25.075Z,3.87
2023-02-03T03:33:54.751Z,3.84
2023-02-03T03:36:29.337Z,3.83
2023-02-03T03:39:05.161Z,3.45
2023-02-03T03:41:42.790Z,3.69
2023-02-03T03:44:15.609Z,3.68
2023-02-03T03:46:50.435Z,3.62
2023-02-03T03:49:22.512Z,3.64
2023-02-03T03:51:55.734Z,3.63
2023-02-03T03:54:26.784Z,3.71
2023-02-03T03:57:02.020Z,3.76
2023-02-03T03:59:33.599Z,3.71
2023-02-03T04:02:05.188Z,3.69
2023-02-03T04:04:37.925Z,3.59
2023-02-03T04:07:06.272Z,3.61
2023-02-03T04:09:36.750Z,3.64
2023-02-03T04:12:06.332Z,3.53
2023-02-03T04:14:38.113Z,3.66
2023-02-03T04:17:06.463Z,3.57
2023-02-03T04:19:36.159Z,3.65
2023-02-03T04:22:04.449Z,3.61
2023-02-03T04:24:32.651Z,3.64
2023-02-03T04:27:01.100Z,3.65
2023-02-03T04:29:29.537Z,3.55
2023-02-03T04:31:57.974Z,3.59
2023-02-03T04:34:26.448Z,3.61
2023-02-03T04:36:55.955Z,3.66
2023-02-03T04:39:24.390Z,3.54
2023-02-03T04:41:52.953Z,3.56
2023-02-03T04:44:21.156Z,3.62
2023-02-03T04:46:49.279Z,3.52
2023-02-03T04:49:17.743Z,3.40
2023-02-03T04:51:46.093Z,3.42
2023-02-03T04:54:15.646Z,3.56
2023-02-03T04:56:44.861Z,3.49
2023-02-03T04:59:13.164Z,3.51
2023-02-03T05:01:41.493Z,3.44
2023-02-03T05:04:09.867Z,3.48
2023-02-03T05:06:38.218Z,3.55
2023-02-03T05:09:06.644Z,3.52
2023-02-03T05:11:36.849Z,3.53
2023-02-03T05:14:05.583Z,3.51
2023-02-03T05:16:34.122Z,3.47
2023-02-03T05:19:02.595Z,3.41
2023-02-03T05:21:30.731Z,3.33
2023-02-03T05:24:00.342Z,3.39
2023-02-03T05:26:28.816Z,3.42
2023-02-03T05:28:58.364Z,3.52
2023-02-03T05:31:26.603Z,3.36
2023-02-03T05:33:54.929Z,3.40
2023-02-03T05:36:23.221Z,3.46
2023-02-03T05:38:51.398Z,3.46
2023-02-03T05:41:37.025Z,3.37
2023-02-03T05:44:06.929Z,3.29
2023-02-03T05:46:35.226Z,3.18
2023-02-03T05:49:03.594Z,3.26
2023-02-03T05:51:31.678Z,3.33
2023-02-03T05:53:59.977Z,3.39
2023-02-03T05:56:28.389Z,3.42
2023-02-03T05:58:56.734Z,3.43
2023-02-03T06:01:26.996Z,3.40
2023-02-03T06:03:55.466Z,3.23
2023-02-03T06:06:23.824Z,3.28
2023-02-03T06:08:56.596Z,3.32
2023-02-03T06:11:25.576Z,3.39
2023-02-03T06:13:53.965Z,3.39
2023-02-03T06:16:22.426Z,3.48
2023-02-03T06:18:52.458Z,3.51
2023-02-03T06:21:21.504Z,3.49
2023-02-03T06:23:50.458Z,3.47
2023-02-03T06:26:18.777Z,3.53
2023-02-03T06:28:47.073Z,3.58
2023-02-03T06:31:15.519Z,3.28
2023-02-03T06:33:43.946Z,3.49
2023-02-03T06:36:15.319Z,3.60
2023-02-03T06:38:43.714Z,3.49
2023-02-03T06:41:11.922Z,3.58
2023-02-03T06:43:40.452Z,3.53
2023-02-03T06:46:08.689Z,3.46
2023-02-03T06:48:37.061Z,3.46
2023-02-03T06:51:05.789Z,3.47
2023-02-03T06:53:35.476Z,3.54
2023-02-03T06:56:03.642Z,3.54
2023-02-03T06:58:31.760Z,3.48
2023-02-03T07:01:00.309Z,3.45
2023-02-03T07:03:28.607Z,3.51
2023-02-03T07:05:57.011Z,3.57
2023-02-03T07:08:25.328Z,3.49
2023-02-03T07:10:56.585Z,3.56
2023-02-03T07:13:24.743Z,3.55
2023-02-03T07:15:53.060Z,3.61
2023-02-03T07:18:47.393Z,3.58
2023-02-03T07:21:14.102Z,3.60
2023-02-03T07:23:42.733Z,3.62
2023-02-03T07:26:13.055Z,3.64
2023-02-03T07:28:41.568Z,3.54
2023-02-03T07:31:10.707Z,3.59
2023-02-03T07:33:39.699Z,3.49
2023-02-03T07:36:09.352Z,3.48
2023-02-03T07:38:39.067Z,3.49
2023-02-03T07:41:07.919Z,3.40
2023-02-03T07:43:38.117Z,3.45
2023-02-03T07:46:06.469Z,3.61
2023-02-03T07:48:34.729Z,3.69
2023-02-03T07:51:03.391Z,3.82
2023-02-03T07:53:32.039Z,3.70
2023-02-03T07:56:02.030Z,3.71
2023-02-03T07:58:31.190Z,3.70
2023-02-03T08:01:01.439Z,3.67
2023-02-03T08:03:29.625Z,3.55
2023-02-03T08:05:58.140Z,3.63
2023-02-03T08:08:26.700Z,3.61
2023-02-03T08:10:57.751Z,3.66
2023-02-03T08:13:26.065Z,3.60
2023-02-03T08:15:54.543Z,3.61
2023-02-03T08:18:24.274Z,3.62
2023-02-03T08:20:52.812Z,3.54
2023-02-03T08:23:21.145Z,3.63
2023-02-03T08:25:52.920Z,3.76
2023-02-03T08:28:21.440Z,3.79
2023-02-03T08:30:49.747Z,3.78
2023-02-03T08:33:18.195Z,3.79
2023-02-03T08:35:50.112Z,3.77
2023-02-03T08:38:18.741Z,3.62
2023-02-03T08:40:49.555Z,3.81
2023-02-03T08:43:18.023Z,3.65
2023-02-03T08:45:46.554Z,3.77
2023-02-03T08:48:14.941Z,3.77
2023-02-03T08:50:44.695Z,3.89
2023-02-03T08:53:14.337Z,3.94
2023-02-03T08:55:42.376Z,3.69
2023-02-03T08:58:10.673Z,3.66
2023-02-03T09:00:42.923Z,3.74
2023-02-03T09:03:11.139Z,3.69
2023-02-03T09:05:39.358Z,3.73
2023-02-03T09:08:07.994Z,3.85
2023-02-03T09:10:37.921Z,3.87
2023-02-03T09:13:06.259Z,3.78
2023-02-03T09:15:34.906Z,3.73
2023-02-03T09:18:03.249Z,3.80
2023-02-03T09:20:32.070Z,3.80
2023-02-03T09:23:01.007Z,3.81
2023-02-03T09:25:29.700Z,3.85
2023-02-03T09:27:59.941Z,3.92
2023-02-03T09:30:29.774Z,3.73
2023-02-03T09:32:59.104Z,3.77
2023-02-03T09:35:29.702Z,3.78
2023-02-03T09:38:00.900Z,3.83
2023-02-03T09:40:34.569Z,3.86
2023-02-03T09:43:18.126Z,3.71
2023-02-03T09:45:46.744Z,3.83
2023-02-03T09:48:20.764Z,3.87
2023-02-03T09:50:52.120Z,4.01
2023-02-03T09:53:30.154Z,3.90
2023-02-03T09:55:59.519Z,4.03
2023-02-03T09:58:34.440Z,3.96
2023-02-03T10:01:07.317Z,4.08
2023-02-03T10:03:41.328Z,4.10
2023-02-03T10:06:18.130Z,3.93
2023-02-03T10:09:17.544Z,4.03
2023-02-03T10:12:15.647Z,4.01
2023-02-03T10:14:58.019Z,4.09
2023-02-03T10:17:32.233Z,4.15
2023-02-03T10:20:06.101Z,4.14
2023-02-03T10:22:39.440Z,4.10
2023-02-03T10:25:20.777Z,4.04
2023-02-03T10:27:50.616Z,4.01
2023-02-03T10:30:22.875Z,4.01
2023-02-03T10:32:53.422Z,4.07
2023-02-03T10:35:23.149Z,4.06
2023-02-03T10:37:55.647Z,4.06
2023-02-03T10:40:29.367Z,4.01
2023-02-03T10:43:15.186Z,4.03
2023-02-03T10:45:44.959Z,4.12
2023-02-03T10:48:17.962Z,4.09
2023-02-03T10:50:50.352Z,4.30
2023-02-03T10:53:24.611Z,4.12
2023-02-03T10:56:02.488Z,4.39
2023-02-03T10:58:33.488Z,4.32
2023-02-03T11:01:12.068Z,4.34
2023-02-03T11:03:43.765Z,4.48
2023-02-03T11:06:14.410Z,4.54
2023-02-03T11:08:45.806Z,4.44
2023-02-03T11:11:16.665Z,4.49
2023-02-03T11:13:45.028Z,4.43
2023-02-03T11:16:17.621Z,4.58
2023-02-03T11:18:52.810Z,4.46
2023-02-03T11:21:24.034Z,4.49
2023-02-03T11:23:56.655Z,4.53
2023-02-03T11:26:28.745Z,4.59
2023-02-03T11:29:00.842Z,4.54
2023-02-03T11:31:33.866Z,4.55
2023-02-03T11:34:04.741Z,4.44
2023-02-03T11:36:35.270Z,4.47
2023-02-03T11:39:35.822Z,4.45
2023-02-03T11:42:18.637Z,4.58
2023-02-03T11:44:46.756Z,4.59
2023-02-03T11:47:18.530Z,4.60
2023-02-03T11:50:27.302Z,4.57
2023-02-03T11:53:13.708Z,4.63
2023-02-03T11:55:54.258Z,4.67
2023-02-03T11:58:54.654Z,4.65
2023-02-03T12:01:37.657Z,4.63
2023-02-03T12:04:43.191Z,4.62
2023-02-03T12:07:33.759Z,4.65
2023-02-03T12:10:10.760Z,4.75
2023-02-03T12:12:52.649Z,4.72
2023-02-03T12:15:58.212Z,4.78
2023-02-03T12:18:38.045Z,4.90
2023-02-03T12:21:27.973Z,4.87
2023-02-03T12:24:04.397Z,4.88
2023-02-03T12:26:39.223Z,4.86
2023-02-03T12:29:13.135Z,4.84
2023-02-03T12:31:45.827Z,4.96
2023-02-03T12:34:22.755Z,4.95
2023-02-03T12:36:58.729Z,4.94
2023-02-03T12:39:33.050Z,4.87
2023-02-03T12:42:05.882Z,4.93
2023-02-03T12:44:42.030Z,4.92
2023-02-03T12:47:18.809Z,4.96
2023-02-03T12:49:52.868Z,5.03
2023-02-03T12:52:28.008Z,5.08
2023-02-03T12:55:07.777Z,5.08
2023-02-03T12:57:42.403Z,5.16
2023-02-03T13:00:30.998Z,5.18
2023-02-03T13:03:09.135Z,5.27
2023-02-03T13:05:45.060Z,5.34
2023-02-03T13:08:25.157Z,5.14
2023-02-03T13:10:59.694Z,5.00
2023-02-03T13:13:41.185Z,4.95
2023-02-03T13:16:12.930Z,4.90
2023-02-03T13:18:45.555Z,4.80
2023-02-03T13:21:14.302Z,4.92
2023-02-03T13:23:47.636Z,5.07
2023-02-03T13:26:44.440Z,4.95
2023-02-03T13:29:34.884Z,5.00
2023-02-03T13:32:18.352Z,4.81
2023-02-03T13:35:01.340Z,4.93
2023-02-03T13:37:59.567Z,4.96
2023-02-03T13:40:42.614Z,4.98
2023-02-03T13:43:22.972Z,4.91
2023-02-03T13:46:01.005Z,5.03
2023-02-03T13:48:32.741Z,4.89
2023-02-03T13:51:08.473Z,4.95
2023-02-03T13:53:40.436Z,5.00
2023-02-03T13:56:19.136Z,5.01
2023-02-03T13:59:01.471Z,4.94
2023-02-03T14:01:34.545Z,5.16
2023-02-03T14:04:04.773Z,5.12
2023-02-03T14:07:01.438Z,5.11
2023-02-03T14:09:43.486Z,5.04
2023-02-03T14:12:22.015Z,4.99
2023-02-03T14:15:05.169Z,5.23
2023-02-03T14:18:02.407Z,5.23
2023-02-03T14:21:11.906Z,4.99
2023-02-03T14:23:50.738Z,4.97
2023-02-03T14:26:38.728Z,4.99
2023-02-03T14:29:10.129Z,5.04
2023-02-03T14:32:00.001Z,4.99
2023-02-03T14:34:34.273Z,5.07
2023-02-03T14:37:21.697Z,5.02
2023-02-03T14:40:17.639Z,5.08
2023-02-03T14:43:27.391Z,4.94
2023-02-03T14:46:29.768Z,4.77
2023-02-03T14:49:29.834Z,4.78
2023-02-03T14:52:23.911Z,4.82
2023-02-03T14:55:09.957Z,4.75
2023-02-03T14:57:44.873Z,4.85
2023-02-03T15:00:30.213Z,4.64
2023-02-03T15:03:35.074Z,4.76
2023-02-03T15:06:05.670Z,4.83
2023-02-03T15:08:37.286Z,4.89
2023-02-03T15:11:25.386Z,4.78
2023-02-03T15:13:54.223Z,4.80
2023-02-03T15:16:24.627Z,4.80
2023-02-03T15:19:00.098Z,4.86
2023-02-03T15:21:28.674Z,4.69
2023-02-03T15:23:56.843Z,4.60
2023-02-03T15:26:26.899Z,4.61
2023-02-03T15:28:58.462Z,4.50
2023-02-03T15:31:38.561Z,4.40
2023-02-03T15:34:19.553Z,4.36
2023-02-03T15:36:51.090Z,4.42
2023-02-03T15:39:27.620Z,4.33
2023-02-03T15:41:58.131Z,4.37
2023-02-03T15:44:32.287Z,4.07
2023-02-03T15:47:05.456Z,4.27
2023-02-03T15:49:41.798Z,4.11
2023-02-03T15:52:15.948Z,4.04
2023-02-03T15:54:53.471Z,4.11
2023-02-03T15:57:25.197Z,4.16
2023-02-03T15:59:57.151Z,3.91
2023-02-03T16:02:31.624Z,3.92
2023-02-03T16:05:05.734Z,3.92
2023-02-03T16:07:34.197Z,3.90
2023-02-03T16:10:02.562Z,3.83
2023-02-03T16:12:32.410Z,3.96
2023-02-03T16:15:03.529Z,3.88
2023-02-03T16:17:34.353Z,3.86
2023-02-03T16:20:23.455Z,3.81
2023-02-03T16:23:04.179Z,3.87
2023-02-03T16:25:34.211Z,4.01
2023-02-03T16:28:21.500Z,3.79
2023-02-03T16:31:16.137Z,3.63
2023-02-03T16:34:04.732Z,3.63
2023-02-03T16:36:51.610Z,3.69
2023-02-03T16:39:37.485Z,3.64
2023-02-03T16:42:32.996Z,3.59
2023-02-03T16:45:18.514Z,3.55
2023-02-03T16:48:05.410Z,3.55
2023-02-03T16:50:58.206Z,3.45
2023-02-03T16:53:31.356Z,3.45
2023-02-03T16:56:01.812Z,3.35
2023-02-03T16:58:29.977Z,3.35
2023-02-03T17:01:01.433Z,3.36
2023-02-03T17:03:30.368Z,3.40
2023-02-03T17:05:58.957Z,3.47
2023-02-03T17:08:28.875Z,3.48
2023-02-03T17:10:59.798Z,3.42
2023-02-03T17:13:28.220Z,3.43
2023-02-03T17:15:56.449Z,3.37
2023-02-03T17:18:24.589Z,3.36
2023-02-03T17:20:53.491Z,3.31
2023-02-03T17:23:22.029Z,3.24
2023-02-03T17:25:51.997Z,3.34
2023-02-03T17:28:20.556Z,3.38
2023-02-03T17:30:57.842Z,3.34
2023-02-03T17:33:26.609Z,3.31
2023-02-03T17:36:02.963Z,3.30
2023-02-03T17:38:31.265Z,3.32
2023-02-03T17:54:51.252Z,3.20
2023-02-03T17:57:20.903Z,3.34
2023-02-03T17:59:48.952Z,3.44
2023-02-03T18:02:17.427Z,3.22
2023-02-03T18:04:45.480Z,3.32
2023-02-03T18:07:13.562Z,3.36
2023-02-03T18:09:41.922Z,3.32
2023-02-03T18:12:09.950Z,3.31
2023-02-03T18:14:39.791Z,3.26
2023-02-03T18:17:08.490Z,3.38
2023-02-03T18:19:36.731Z,3.38
2023-02-03T18:22:04.885Z,3.28
2023-02-03T18:24:33.795Z,3.33
2023-02-03T18:27:03.643Z,3.37
2023-02-03T18:29:31.657Z,3.35
2023-02-03T18:32:01.448Z,3.41
2023-02-03T18:34:29.540Z,3.36
2023-02-03T18:36:57.687Z,3.31
2023-02-03T18:39:25.921Z,3.30
2023-02-03T18:41:54.042Z,3.43
2023-02-03T18:44:22.398Z,3.40
2023-02-03T18:46:53.551Z,3.43
2023-02-03T18:49:23.295Z,3.34
2023-02-03T18:51:51.545Z,3.24
2023-02-03T18:54:19.693Z,3.26
2023-02-03T18:56:48.248Z,3.21
2023-02-03T18:59:17.147Z,3.25
2023-02-03T19:01:46.669Z,3.20
2023-02-03T19:04:15.587Z,3.11
2023-02-03T19:06:45.842Z,3.16
2023-02-03T19:09:17.256Z,3.04
2023-02-03T19:11:47.627Z,3.21
2023-02-03T19:14:19.566Z,3.30
2023-02-03T19:16:50.453Z,3.28
2023-02-03T19:19:18.842Z,3.02
2023-02-03T19:21:49.537Z,2.92
2023-02-03T19:24:18.990Z,2.94
2023-02-03T19:26:47.891Z,2.94
2023-02-03T19:29:16.917Z,2.89
2023-02-03T19:31:45.497Z,3.09
2023-02-03T19:34:15.999Z,3.16
2023-02-03T19:36:46.417Z,2.94
2023-02-03T19:39:16.749Z,2.76
2023-02-03T19:41:48.188Z,2.79
2023-02-03T19:44:16.887Z,2.75
2023-02-03T19:46:45.411Z,2.77
2023-02-03T19:49:15.537Z,2.78
2023-02-03T19:51:47.810Z,2.66
2023-02-03T19:54:18.545Z,2.63
2023-02-03T19:56:46.889Z,2.59
2023-02-03T19:59:15.225Z,2.60
2023-02-03T20:01:43.778Z,2.54
2023-02-03T20:04:12.312Z,2.60
2023-02-03T20:06:40.764Z,2.60
2023-02-03T20:09:08.984Z,2.64
2023-02-03T20:11:38.839Z,2.65
2023-02-03T20:14:07.106Z,2.65
2023-02-03T20:16:35.504Z,2.63
2023-02-03T20:19:04.267Z,2.65
2023-02-03T20:21:32.326Z,2.50
2023-02-03T20:26:54.573Z,2.37
2023-02-03T20:29:22.830Z,2.35
2023-02-03T20:31:53.087Z,2.28
2023-02-03T20:34:22.388Z,2.24
2023-02-03T20:36:50.769Z,2.33
2023-02-03T20:39:21.566Z,2.44
2023-02-03T20:41:50.123Z,2.43
2023-02-03T20:44:20.208Z,2.36
2023-02-03T20:46:49.163Z,2.27
2023-02-03T20:49:19.815Z,2.27
2023-02-03T20:51:48.226Z,2.28
2023-02-03T20:54:19.397Z,2.32
2023-02-03T20:56:47.645Z,2.14
2023-02-03T20:59:20.552Z,2.18
2023-02-03T21:01:50.940Z,2.18
2023-02-03T21:04:37.873Z,2.12
2023-02-03T21:07:14.867Z,1.96
2023-02-03T21:09:43.403Z,1.93
2023-02-03T21:12:13.320Z,1.82
2023-02-03T21:14:45.629Z,1.77
2023-02-03T21:17:19.399Z,1.84
2023-02-03T21:19:48.175Z,1.90
2023-02-03T21:22:23.213Z,1.72
2023-02-03T21:24:54.385Z,1.92
2023-02-03T21:27:28.732Z,1.83
2023-02-03T21:29:59.867Z,1.88
2023-02-03T21:32:37.542Z,1.87
2023-02-03T21:35:24.125Z,1.84
2023-02-03T21:37:55.891Z,1.85
2023-02-03T21:40:29.525Z,1.85
2023-02-03T21:42:58.961Z,1.76
2023-02-03T21:45:35.752Z,1.75
2023-02-03T21:48:25.253Z,1.78
2023-02-03T21:50:54.907Z,1.97
2023-02-03T21:53:29.646Z,1.93
2023-02-03T21:55:58.000Z,1.78
2023-02-03T21:58:29.076Z,1.68
2023-02-03T22:01:00.123Z,1.78
2023-02-03T22:03:30.112Z,1.72
2023-02-03T22:06:14.456Z,1.68
2023-02-03T22:08:44.872Z,1.65
2023-02-03T22:11:13.559Z,1.73
2023-02-03T22:13:42.221Z,1.68
2023-02-03T22:16:13.884Z,1.71
2023-02-03T22:18:42.493Z,1.70
2023-02-03T22:21:10.841Z,1.76
2023-02-03T22:23:39.313Z,1.79
2023-02-03T22:26:08.735Z,1.74
2023-02-03T22:28:40.701Z,1.63
2023-02-03T22:31:11.503Z,1.50
2023-02-03T22:33:42.076Z,1.52
2023-02-03T22:36:11.842Z,1.49
2023-02-03T22:38:41.755Z,1.67
2023-02-03T22:41:12.234Z,1.65
2023-02-03T22:43:41.126Z,1.57
2023-02-03T22:46:09.955Z,1.66
2023-02-03T22:48:38.433Z,1.63
2023-02-03T22:51:08.318Z,1.64
2023-02-03T22:53:36.711Z,1.71
2023-02-03T22:56:05.322Z,1.74
2023-02-03T22:58:33.514Z,1.59
2023-02-03T23:01:01.827Z,1.56
2023-02-03T23:03:32.812Z,1.59
2023-02-03T23:06:01.446Z,1.53
2023-02-03T23:08:31.156Z,1.47
2023-02-03T23:10:59.657Z,1.49
2023-02-03T23:13:28.430Z,1.42
2023-02-03T23:15:56.806Z,1.45
2023-02-03T23:18:25.119Z,1.37
2023-02-03T23:20:53.169Z,1.22
2023-02-03T23:23:21.462Z,1.23
2023-02-03T23:25:51.266Z,1.14
2023-02-03T23:28:19.600Z,1.21
2023-02-03T23:30:48.248Z,1.19
2023-02-03T23:33:19.649Z,1.16
2023-02-03T23:35:46.925Z,1.12
2023-02-03T23:38:16.406Z,1.12
2023-02-03T23:40:46.284Z,1.23
2023-02-03T23:43:16.334Z,1.40
2023-02-03T23:45:44.610Z,1.20
2023-02-03T23:48:13.445Z,1.25
2023-02-03T23:50:42.108Z,1.37
2023-02-03T23:53:10.888Z,1.31
2023-02-03T23:55:39.190Z,1.40
2023-02-03T23:58:07.516Z,1.48
